Time;durP1;ratioP1;P1;durP2;ratioP2;P2;SDS_P1;SDS_P2;PMS_P1;PMS_P2;Temp;Humidity;BMP_temperature;BMP_pressure;BME280_temperature;BME280_humidity;BME280_pressure;Samples;Min_cycle;Max_cycle;Signal;HPM_P1;HPM_P2
2022/12/10 00:01:26;;;;;;;23.63;12.70;;;4.60;75.10;;;;;;5057716;28;20207;-70
2022/12/10 00:03:54;;;;;;;21.85;12.10;;;4.60;75.20;;;;;;5058111;28;20217;-70
2022/12/10 00:06:26;;;;;;;24.95;14.93;;;4.50;75.20;;;;;;5058576;28;20843;-69
2022/12/10 00:08:55;;;;;;;25.27;14.18;;;4.50;75.10;;;;;;5059702;28;20200;-69
2022/12/10 00:11:25;;;;;;;21.75;13.70;;;4.50;75.20;;;;;;5059069;28;20344;-70
2022/12/10 00:13:54;;;;;;;21.95;13.18;;;4.50;75.30;;;;;;5057701;28;20204;-69
2022/12/10 00:16:24;;;;;;;20.08;13.48;;;4.60;75.40;;;;;;5056166;28;20236;-70
2022/12/10 00:18:53;;;;;;;23.30;13.40;;;4.60;75.10;;;;;;5058540;28;20201;-71
2022/12/10 00:21:29;;;;;;;21.55;13.40;;;4.60;75.10;;;;;;5058203;28;20207;-70
2022/12/10 00:23:58;;;;;;;19.33;11.57;;;4.60;75.20;;;;;;5056431;28;20224;-70
2022/12/10 00:26:30;;;;;;;18.95;11.40;;;4.60;75.30;;;;;;5060400;28;20273;-70
2022/12/10 00:28:58;;;;;;;19.23;11.48;;;4.70;75.40;;;;;;5061183;28;20674;-69
2022/12/10 00:31:28;;;;;;;19.80;12.07;;;4.70;75.40;;;;;;5059754;28;20687;-70
2022/12/10 00:33:57;;;;;;;18.98;11.20;;;4.80;75.40;;;;;;5059179;28;21003;-70
2022/12/10 00:36:29;;;;;;;24.98;13.10;;;4.80;75.20;;;;;;5075829;28;20233;-71
2022/12/10 00:38:59;;;;;;;18.98;12.50;;;4.80;75.10;;;;;;5055795;28;20192;-70
2022/12/10 00:41:30;;;;;;;20.45;11.98;;;4.70;75.00;;;;;;5055684;28;20203;-70
2022/12/10 00:43:58;;;;;;;21.60;13.30;;;4.70;75.10;;;;;;5058161;28;20212;-70
2022/12/10 00:46:27;;;;;;;21.85;11.73;;;4.70;75.20;;;;;;5060160;28;20278;-69
2022/12/10 00:48:55;;;;;;;27.13;14.02;;;4.70;75.20;;;;;;5057204;28;20200;-70
2022/12/10 00:51:25;;;;;;;20.70;12.30;;;4.70;75.20;;;;;;5057319;28;20246;-71
2022/12/10 00:53:55;;;;;;;20.50;12.48;;;4.80;75.30;;;;;;5057090;28;20836;-70
2022/12/10 00:56:26;;;;;;;19.75;12.25;;;4.80;75.30;;;;;;5068493;28;20322;-70
2022/12/10 00:58:56;;;;;;;17.45;10.40;;;4.80;75.30;;;;;;5061645;28;21538;-70
2022/12/10 01:01:26;;;;;;;20.42;11.80;;;4.80;75.20;;;;;;5058424;28;20212;-70
2022/12/10 01:03:57;;;;;;;19.40;11.93;;;4.80;75.10;;;;;;5057266;28;20213;-70
2022/12/10 01:06:27;;;;;;;16.88;11.15;;;4.80;75.10;;;;;;5058088;28;20211;-71
2022/12/10 01:08:58;;;;;;;16.13;11.02;;;4.90;75.10;;;;;;5073999;28;20211;-71
2022/12/10 01:11:29;;;;;;;19.95;11.43;;;4.90;75.00;;;;;;5056767;28;20243;-71
2022/12/10 01:13:59;;;;;;;18.05;11.25;;;4.90;75.10;;;;;;5059862;28;20203;-70
2022/12/10 01:16:27;;;;;;;19.30;11.50;;;4.90;75.00;;;;;;5056899;28;20227;-70
2022/12/10 01:18:56;;;;;;;20.88;13.15;;;4.90;75.00;;;;;;5059320;28;20212;-70
2022/12/10 01:21:26;;;;;;;19.38;12.10;;;4.90;75.00;;;;;;5072531;28;20209;-70
2022/12/10 01:23:55;;;;;;;18.15;11.18;;;4.80;75.00;;;;;;5063022;28;20763;-71
2022/12/10 01:26:25;;;;;;;20.42;11.65;;;4.80;75.00;;;;;;5079147;28;20223;-72
2022/12/10 01:28:55;;;;;;;23.67;12.10;;;4.80;75.00;;;;;;5056604;28;20203;-70
2022/12/10 01:31:27;;;;;;;19.00;11.50;;;4.80;75.00;;;;;;5053665;28;20207;-70
2022/12/10 01:33:56;;;;;;;18.17;11.60;;;4.80;75.10;;;;;;5058523;28;20705;-70
2022/12/10 01:36:27;;;;;;;18.83;11.52;;;4.80;75.10;;;;;;5071576;28;20220;-72
2022/12/10 01:38:56;;;;;;;18.20;11.05;;;4.80;75.10;;;;;;5055881;28;20256;-70
2022/12/10 01:41:26;;;;;;;20.27;12.27;;;4.80;75.10;;;;;;5058675;28;20698;-68
2022/12/10 01:43:57;;;;;;;18.45;11.50;;;4.80;75.00;;;;;;5055134;28;20971;-71
2022/12/10 01:46:29;;;;;;;18.73;11.43;;;4.70;75.10;;;;;;5056715;28;20727;-70
2022/12/10 01:48:57;;;;;;;21.23;11.85;;;4.80;75.10;;;;;;5070469;28;20206;-71
2022/12/10 01:51:29;;;;;;;21.13;12.40;;;4.70;75.00;;;;;;5061926;28;20210;-70
2022/12/10 01:53:57;;;;;;;21.20;13.18;;;4.70;75.00;;;;;;5056431;28;20196;-69
2022/12/10 01:56:25;;;;;;;21.95;12.57;;;4.70;74.80;;;;;;5051997;28;20229;-70
2022/12/10 01:58:57;;;;;;;25.30;13.90;;;4.60;74.80;;;;;;5063804;28;20235;-68
2022/12/10 02:01:33;;;;;;;19.55;12.43;;;4.50;74.90;;;;;;5055973;28;20207;-69
2022/12/10 02:04:12;;;;;;;20.05;11.85;;;4.50;75.00;;;;;;5058232;28;20208;-69
2022/12/10 02:06:48;;;;;;;19.05;11.88;;;4.50;75.10;;;;;;5070050;28;20232;-71
2022/12/10 02:09:34;;;;;;;20.92;13.70;;;4.50;75.10;;;;;;5077191;28;20211;-68
2022/12/10 02:12:10;;;;;;;19.80;12.60;;;4.50;75.10;;;;;;5075595;28;20693;-71
2022/12/10 02:14:46;;;;;;;22.33;13.05;;;4.50;75.10;;;;;;5057441;28;20246;-71
2022/12/10 02:17:19;;;;;;;21.65;13.10;;;4.50;75.20;;;;;;5071730;28;20238;-70
2022/12/10 02:20:01;;;;;;;23.33;12.80;;;4.50;75.20;;;;;;5072211;28;20203;-70
2022/12/10 02:22:35;;;;;;;21.38;12.90;;;4.50;75.30;;;;;;5057046;28;20680;-70
2022/12/10 02:25:06;;;;;;;21.60;13.02;;;4.50;75.20;;;;;;5054749;28;20550;-71
2022/12/10 02:27:43;;;;;;;23.90;12.52;;;4.50;75.20;;;;;;5060511;28;20707;-71
2022/12/10 02:30:14;;;;;;;19.13;11.18;;;4.50;75.30;;;;;;5065601;28;20195;-70
2022/12/10 02:32:46;;;;;;;20.02;11.82;;;4.50;75.10;;;;;;5057239;28;20211;-69
2022/12/10 02:35:19;;;;;;;20.60;12.55;;;4.50;75.20;;;;;;5057170;28;20192;-71
2022/12/10 02:37:51;;;;;;;24.35;12.98;;;4.40;75.20;;;;;;5061685;28;20670;-72
2022/12/10 02:40:24;;;;;;;22.92;12.30;;;4.40;75.20;;;;;;5057686;28;20207;-73
2022/12/10 02:42:54;;;;;;;19.92;12.50;;;4.40;75.20;;;;;;5068143;28;20690;-70
2022/12/10 02:45:28;;;;;;;22.02;13.10;;;4.50;75.30;;;;;;5051669;28;20711;-70
2022/12/10 02:47:59;;;;;;;18.88;12.02;;;4.50;75.30;;;;;;5056147;28;20621;-71
2022/12/10 02:50:35;;;;;;;20.60;11.18;;;4.40;75.30;;;;;;5072496;28;20215;-73
2022/12/10 02:53:04;;;;;;;23.80;12.35;;;4.50;75.30;;;;;;5071224;28;20196;-69
2022/12/10 02:55:47;;;;;;;19.65;11.30;;;4.50;75.20;;;;;;5055062;28;20239;-71
2022/12/10 02:58:27;;;;;;;18.83;12.05;;;4.50;75.20;;;;;;5073076;28;20299;-73
2022/12/10 03:01:03;;;;;;;20.42;12.23;;;4.40;75.20;;;;;;5057366;28;20207;-73
2022/12/10 03:03:40;;;;;;;16.65;10.60;;;4.40;75.20;;;;;;5063216;28;20208;-72
2022/12/10 03:06:14;;;;;;;19.23;12.18;;;4.40;75.20;;;;;;5054976;28;20216;-72
2022/12/10 03:08:48;;;;;;;19.05;11.38;;;4.40;75.30;;;;;;5070170;28;21232;-71
2022/12/10 03:11:19;;;;;;;22.50;12.68;;;4.40;75.30;;;;;;5055729;28;20187;-71
2022/12/10 03:13:55;;;;;;;19.67;11.55;;;4.40;75.20;;;;;;5054309;28;20254;-72
2022/12/10 03:16:28;;;;;;;19.60;11.15;;;4.40;75.20;;;;;;5055332;28;20244;-70
2022/12/10 03:19:00;;;;;;;18.98;11.05;;;4.40;75.20;;;;;;5058245;28;20215;-72
2022/12/10 03:21:31;;;;;;;21.83;12.00;;;4.40;75.20;;;;;;5055614;28;20195;-72
2022/12/10 03:23:59;;;;;;;22.50;13.65;;;4.30;75.10;;;;;;5070655;28;20208;-70
2022/12/10 03:26:28;;;;;;;22.55;12.95;;;4.30;75.10;;;;;;5056375;28;20244;-70
2022/12/10 03:29:04;;;;;;;21.48;12.45;;;4.20;75.10;;;;;;5055088;28;20257;-69
2022/12/10 03:31:35;;;;;;;24.70;12.75;;;4.20;75.20;;;;;;5054226;28;20203;-70
2022/12/10 03:34:05;;;;;;;24.77;13.52;;;4.20;75.30;;;;;;5057401;28;20208;-70
2022/12/10 03:36:34;;;;;;;20.88;12.05;;;4.20;75.30;;;;;;5055594;28;20951;-71
2022/12/10 03:39:02;;;;;;;21.08;12.45;;;4.20;75.30;;;;;;5060734;28;20262;-69
2022/12/10 03:41:30;;;;;;;18.98;12.50;;;4.20;75.30;;;;;;5055144;28;20254;-69
2022/12/10 03:44:00;;;;;;;15.30;10.10;;;4.20;75.30;;;;;;5052962;28;20203;-70
2022/12/10 03:46:30;;;;;;;20.90;12.20;;;4.20;75.30;;;;;;5052858;28;20285;-70
2022/12/10 03:49:01;;;;;;;20.55;12.05;;;4.20;75.30;;;;;;5054138;28;20196;-70
2022/12/10 03:51:29;;;;;;;19.95;12.45;;;4.20;75.30;;;;;;5056080;28;20317;-69
2022/12/10 03:53:57;;;;;;;18.63;11.90;;;4.20;75.40;;;;;;5053899;28;20229;-69
2022/12/10 03:56:25;;;;;;;19.38;11.52;;;4.20;75.50;;;;;;5057254;28;20228;-69
2022/12/10 03:58:53;;;;;;;20.60;12.05;;;4.20;75.40;;;;;;5055224;28;20233;-69
2022/12/10 04:01:21;;;;;;;17.35;11.00;;;4.20;75.40;;;;;;5055843;28;20249;-67
2022/12/10 04:03:49;;;;;;;18.73;11.23;;;4.20;75.30;;;;;;5053545;28;20197;-70
2022/12/10 04:06:19;;;;;;;23.38;13.43;;;4.20;75.50;;;;;;5054980;28;20231;-70
2022/12/10 04:08:48;;;;;;;33.83;18.35;;;4.10;75.20;;;;;;5054928;28;20208;-69
2022/12/10 04:11:25;;;;;;;29.33;17.65;;;4.00;75.00;;;;;;5055341;28;20211;-69
2022/12/10 04:16:39;;;;;;;22.50;14.25;;;3.80;75.00;;;;;;5052380;28;20285;-71
2022/12/10 04:19:09;;;;;;;22.98;13.88;;;3.70;75.20;;;;;;5052029;28;20201;-70
2022/12/10 04:27:19;;;;;;;26.20;15.70;;;3.60;75.70;;;;;;5055611;28;20281;-70
2022/12/10 04:29:47;;;;;;;26.33;15.50;;;3.60;75.60;;;;;;5053393;28;20232;-70
2022/12/10 04:32:16;;;;;;;24.92;14.32;;;3.60;75.70;;;;;;5057700;28;20289;-69
2022/12/10 04:34:44;;;;;;;26.75;14.50;;;3.60;75.70;;;;;;5056447;28;20329;-70
2022/12/10 04:37:14;;;;;;;27.27;15.30;;;3.60;75.70;;;;;;5060414;28;20232;-70
2022/12/10 04:39:42;;;;;;;25.30;13.15;;;3.50;75.80;;;;;;5056258;28;21095;-70
2022/12/10 04:42:10;;;;;;;24.05;13.82;;;3.50;75.90;;;;;;5068566;28;20204;-69
2022/12/10 04:44:38;;;;;;;23.00;13.43;;;3.60;76.00;;;;;;5062831;28;20223;-69
2022/12/10 04:47:09;;;;;;;22.15;13.60;;;3.60;76.00;;;;;;5056758;28;20273;-70
2022/12/10 04:49:37;;;;;;;21.95;13.30;;;3.60;76.10;;;;;;5054836;28;20243;-69
2022/12/10 04:52:06;;;;;;;24.23;13.55;;;3.70;76.10;;;;;;5056394;28;20241;-69
2022/12/10 04:54:36;;;;;;;21.80;12.88;;;3.70;76.10;;;;;;5061981;28;20207;-70
2022/12/10 04:57:06;;;;;;;25.48;14.98;;;3.70;76.10;;;;;;5059221;28;20238;-70
2022/12/10 04:59:36;;;;;;;20.63;12.55;;;3.80;76.00;;;;;;5075541;28;20218;-71
2022/12/10 05:02:04;;;;;;;21.67;13.32;;;3.80;76.00;;;;;;5058639;28;20196;-70
2022/12/10 05:04:32;;;;;;;23.30;14.18;;;3.80;75.90;;;;;;5060339;28;20203;-70
2022/12/10 05:07:00;;;;;;;22.17;13.75;;;3.80;75.90;;;;;;5060675;28;20246;-70
2022/12/10 05:09:28;;;;;;;24.95;13.75;;;3.80;75.90;;;;;;5059590;28;20208;-70
2022/12/10 05:11:58;;;;;;;25.52;13.77;;;3.80;75.90;;;;;;5057012;28;20208;-71
2022/12/10 05:14:26;;;;;;;23.85;13.60;;;3.80;75.90;;;;;;5059542;28;20200;-71
2022/12/10 05:16:54;;;;;;;21.35;13.88;;;3.80;75.90;;;;;;5057625;28;20650;-72
2022/12/10 05:19:23;;;;;;;26.05;14.20;;;3.80;75.80;;;;;;5060523;28;20222;-70
2022/12/10 05:24:37;;;;;;;29.23;14.77;;;3.70;75.70;;;;;;5058853;28;20215;-71
2022/12/10 05:27:06;;;;;;;26.52;14.85;;;3.60;75.60;;;;;;5055849;28;20242;-67
2022/12/10 05:29:35;;;;;;;25.48;15.07;;;3.60;75.60;;;;;;5054704;28;20219;-69
2022/12/10 05:32:03;;;;;;;26.23;14.77;;;3.50;75.60;;;;;;5058900;28;20253;-72
2022/12/10 05:34:31;;;;;;;28.13;17.55;;;3.50;75.60;;;;;;5059029;28;20219;-69
2022/12/10 05:37:00;;;;;;;26.58;15.60;;;3.50;75.80;;;;;;5057559;28;20740;-70
2022/12/10 05:39:28;;;;;;;31.70;16.10;;;3.50;75.90;;;;;;5057871;28;20605;-70
2022/12/10 05:41:56;;;;;;;24.77;14.65;;;3.50;76.00;;;;;;5057788;28;20242;-67
2022/12/10 05:44:25;;;;;;;30.13;15.55;;;3.50;76.00;;;;;;5061258;28;20200;-70
2022/12/10 05:46:53;;;;;;;22.85;13.50;;;3.50;75.90;;;;;;5055914;28;20224;-71
2022/12/10 05:49:21;;;;;;;22.35;13.93;;;3.50;75.90;;;;;;5059217;28;20653;-69
2022/12/10 05:51:49;;;;;;;26.65;13.60;;;3.50;75.80;;;;;;5072980;28;20297;-71
2022/12/10 05:54:17;;;;;;;23.60;14.23;;;3.50;75.80;;;;;;5059840;28;20200;-69
2022/12/10 05:56:45;;;;;;;25.88;15.18;;;3.50;75.80;;;;;;5058634;28;20235;-71
2022/12/10 05:59:13;;;;;;;27.85;15.23;;;3.50;75.80;;;;;;5059000;28;20197;-71
2022/12/10 06:01:45;;;;;;;23.67;14.68;;;3.50;75.80;;;;;;5055176;28;20204;-71
2022/12/10 06:04:14;;;;;;;23.70;14.15;;;3.50;75.80;;;;;;5075492;28;20213;-72
2022/12/10 06:06:42;;;;;;;24.40;14.45;;;3.40;75.80;;;;;;5058744;28;20349;-70
2022/12/10 06:09:13;;;;;;;23.88;14.00;;;3.40;75.80;;;;;;5056797;28;20196;-71
2022/12/10 06:11:42;;;;;;;27.13;13.98;;;3.40;75.80;;;;;;5067607;28;20575;-71
2022/12/10 06:14:11;;;;;;;25.02;14.05;;;3.40;75.80;;;;;;5059063;28;20415;-70
2022/12/10 06:16:40;;;;;;;21.42;13.50;;;3.40;75.80;;;;;;5058790;28;20273;-70
2022/12/10 06:19:10;;;;;;;22.63;14.07;;;3.50;75.90;;;;;;5059115;28;20197;-70
2022/12/10 06:21:39;;;;;;;22.90;13.48;;;3.50;75.90;;;;;;5057740;28;20582;-70
2022/12/10 06:24:07;;;;;;;25.30;13.80;;;3.50;75.90;;;;;;5073268;28;20291;-70
2022/12/10 06:26:35;;;;;;;22.90;14.20;;;3.50;75.90;;;;;;5058014;28;20242;-71
2022/12/10 06:29:04;;;;;;;20.67;12.48;;;3.50;75.80;;;;;;5055963;28;20224;-70
2022/12/10 06:31:32;;;;;;;22.50;14.65;;;3.50;75.80;;;;;;5051897;28;20211;-70
2022/12/10 06:34:00;;;;;;;26.40;15.60;;;3.50;75.80;;;;;;5060262;28;20215;-70
2022/12/10 06:36:30;;;;;;;25.75;15.18;;;3.50;75.90;;;;;;5056982;28;20223;-71
2022/12/10 06:38:58;;;;;;;23.48;12.65;;;3.50;75.90;;;;;;5058597;28;20200;-72
2022/12/10 06:41:26;;;;;;;24.60;12.95;;;3.50;75.90;;;;;;5058347;28;20208;-71
2022/12/10 06:43:57;;;;;;;20.85;13.55;;;3.50;75.90;;;;;;5057034;28;20254;-72
2022/12/10 06:46:28;;;;;;;24.27;13.43;;;3.50;75.90;;;;;;5060506;28;20334;-70
2022/12/10 06:48:56;;;;;;;21.35;12.80;;;3.50;75.80;;;;;;5054137;28;20294;-70
2022/12/10 06:51:25;;;;;;;23.67;13.35;;;3.50;75.90;;;;;;5055982;28;20189;-70
2022/12/10 06:53:55;;;;;;;22.33;13.05;;;3.50;75.90;;;;;;5058931;28;20210;-72
2022/12/10 06:56:23;;;;;;;24.40;14.73;;;3.50;75.80;;;;;;5054747;28;20235;-70
2022/12/10 06:58:53;;;;;;;26.70;14.00;;;3.50;75.80;;;;;;5072468;28;20200;-70
2022/12/10 07:01:25;;;;;;;24.45;13.40;;;3.40;75.80;;;;;;5058093;28;20204;-72
2022/12/10 07:03:56;;;;;;;20.30;12.70;;;3.40;75.90;;;;;;5055243;28;20231;-70
2022/12/10 07:06:24;;;;;;;23.77;12.55;;;3.40;75.90;;;;;;5059232;28;20231;-71
2022/12/10 07:08:53;;;;;;;24.35;14.50;;;3.40;75.90;;;;;;5061102;28;20204;-71
2022/12/10 07:11:24;;;;;;;28.80;16.20;;;3.40;75.90;;;;;;5056082;28;20604;-71
2022/12/10 07:13:52;;;;;;;23.85;13.57;;;3.40;76.00;;;;;;5060962;28;20662;-70
2022/12/10 07:16:22;;;;;;;24.85;14.68;;;3.40;76.00;;;;;;5055469;28;20248;-69
2022/12/10 07:18:51;;;;;;;28.65;15.75;;;3.40;76.00;;;;;;5056099;28;20191;-73
2022/12/10 07:21:21;;;;;;;24.85;14.68;;;3.40;76.10;;;;;;5056868;28;20192;-70
2022/12/10 07:23:50;;;;;;;27.55;15.23;;;3.40;76.10;;;;;;5054615;28;20205;-69
2022/12/10 07:26:18;;;;;;;27.15;16.48;;;3.40;76.10;;;;;;5056655;28;20238;-69
2022/12/10 07:28:48;;;;;;;28.92;17.20;;;3.40;76.10;;;;;;5060221;28;20255;-70
2022/12/10 07:31:21;;;;;;;27.40;15.60;;;3.40;76.20;;;;;;5066430;28;20199;-70
2022/12/10 07:33:49;;;;;;;27.60;16.80;;;3.40;76.20;;;;;;5066135;28;20226;-72
2022/12/10 07:36:17;;;;;;;26.00;15.80;;;3.40;76.30;;;;;;5062555;28;20216;-73
2022/12/10 07:38:46;;;;;;;32.28;17.42;;;3.40;76.40;;;;;;5068136;28;20447;-72
2022/12/10 07:41:14;;;;;;;27.83;16.23;;;3.50;76.40;;;;;;5067896;28;20200;-72
2022/12/10 07:43:44;;;;;;;26.98;15.57;;;3.50;76.40;;;;;;5064546;28;20263;-71
2022/12/10 07:46:16;;;;;;;25.20;16.48;;;3.50;76.40;;;;;;5067092;28;20225;-71
2022/12/10 07:48:45;;;;;;;26.40;15.07;;;3.50;76.30;;;;;;5067623;28;20219;-72
2022/12/10 07:51:14;;;;;;;24.35;14.65;;;3.50;76.40;;;;;;5061344;28;20329;-71
2022/12/10 07:53:42;;;;;;;24.65;16.02;;;3.50;76.40;;;;;;5064609;28;20204;-72
2022/12/10 07:56:11;;;;;;;26.95;16.50;;;3.50;76.40;;;;;;5063450;28;20267;-73
2022/12/10 07:58:42;;;;;;;30.17;16.88;;;3.50;76.50;;;;;;5068943;28;20200;-73
2022/12/10 08:01:13;;;;;;;29.45;15.93;;;3.50;76.50;;;;;;5073819;28;20203;-72
2022/12/10 08:03:42;;;;;;;25.42;15.13;;;3.50;76.60;;;;;;5060646;28;20617;-71
2022/12/10 08:06:13;;;;;;;30.58;17.33;;;3.50;76.70;;;;;;5056162;28;20518;-70
2022/12/10 08:08:42;;;;;;;31.83;18.38;;;3.60;76.70;;;;;;5052181;28;20565;-71
2022/12/10 08:11:11;;;;;;;27.77;17.90;;;3.60;76.60;;;;;;5050918;28;20204;-72
2022/12/10 08:13:41;;;;;;;33.58;18.05;;;3.50;76.60;;;;;;5055010;28;20207;-72
2022/12/10 08:16:14;;;;;;;36.45;17.42;;;3.60;76.60;;;;;;5057417;28;20778;-72
2022/12/10 08:18:42;;;;;;;29.35;16.90;;;3.50;76.60;;;;;;5057311;28;20208;-71
2022/12/10 08:21:12;;;;;;;31.40;17.25;;;3.50;76.70;;;;;;5061293;28;20197;-71
2022/12/10 08:23:41;;;;;;;29.48;17.92;;;3.50;76.70;;;;;;5058284;28;20262;-72
2022/12/10 08:26:12;;;;;;;30.02;17.08;;;3.50;76.70;;;;;;5060203;28;20609;-72
2022/12/10 08:28:40;;;;;;;31.40;17.08;;;3.50;76.70;;;;;;5062255;28;20238;-73
2022/12/10 08:31:11;;;;;;;31.60;17.92;;;3.50;76.80;;;;;;5063428;28;20653;-70
2022/12/10 08:33:41;;;;;;;33.03;18.48;;;3.50;76.80;;;;;;5058447;28;20238;-71
2022/12/10 08:36:13;;;;;;;30.80;17.35;;;3.60;76.90;;;;;;5062236;28;20277;-73
2022/12/10 08:38:42;;;;;;;29.83;16.67;;;3.60;76.90;;;;;;5059109;28;20212;-71
2022/12/10 08:41:12;;;;;;;31.65;17.95;;;3.60;76.90;;;;;;5060245;28;20231;-71
2022/12/10 08:43:40;;;;;;;27.00;16.48;;;3.60;77.00;;;;;;5061375;28;20657;-71
2022/12/10 08:46:09;;;;;;;27.92;16.02;;;3.60;77.00;;;;;;5059586;28;20220;-71
2022/12/10 08:48:41;;;;;;;26.40;16.58;;;3.60;77.00;;;;;;5055899;28;20217;-72
2022/12/10 08:51:11;;;;;;;30.00;18.02;;;3.70;77.00;;;;;;5058792;28;20246;-71
2022/12/10 08:53:39;;;;;;;32.50;18.88;;;3.70;77.00;;;;;;5055978;28;20208;-71
2022/12/10 08:56:07;;;;;;;37.10;17.65;;;3.70;77.00;;;;;;5055955;28;20244;-73
2022/12/10 08:58:37;;;;;;;30.40;18.23;;;3.70;77.00;;;;;;5058791;28;20200;-71
2022/12/10 09:01:07;;;;;;;27.98;17.52;;;3.70;77.10;;;;;;5058400;28;20211;-72
2022/12/10 09:03:36;;;;;;;30.45;16.65;;;3.70;77.10;;;;;;5056847;28;20204;-71
2022/12/10 09:06:07;;;;;;;27.10;16.92;;;3.70;77.20;;;;;;5058513;28;20636;-70
2022/12/10 09:08:36;;;;;;;26.48;16.55;;;3.70;77.20;;;;;;5059241;28;20320;-71
2022/12/10 09:11:08;;;;;;;26.70;16.58;;;3.80;77.30;;;;;;5072193;28;20696;-71
2022/12/10 09:13:36;;;;;;;25.33;15.98;;;3.80;77.20;;;;;;5056219;28;20261;-71
2022/12/10 09:16:05;;;;;;;28.88;16.95;;;3.80;77.20;;;;;;5056881;28;20294;-72
2022/12/10 09:18:33;;;;;;;28.75;16.83;;;3.80;77.20;;;;;;5055295;28;20204;-71
2022/12/10 09:21:04;;;;;;;31.70;17.55;;;3.80;77.20;;;;;;5054367;28;20258;-74
2022/12/10 09:23:34;;;;;;;33.60;17.77;;;3.80;77.20;;;;;;5055894;28;20200;-70
2022/12/10 09:26:02;;;;;;;31.13;17.75;;;3.80;77.30;;;;;;5053754;28;20220;-71
2022/12/10 09:28:30;;;;;;;29.27;17.42;;;3.80;77.30;;;;;;5056560;28;20275;-72
2022/12/10 09:30:59;;;;;;;34.05;18.52;;;3.80;77.30;;;;;;5057005;28;20242;-71
2022/12/10 09:33:35;;;;;;;39.08;19.75;;;3.80;77.30;;;;;;5057061;28;20262;-70
2022/12/10 09:36:04;;;;;;;32.67;18.92;;;3.80;77.30;;;;;;5056546;28;20709;-69
2022/12/10 09:38:32;;;;;;;35.45;20.75;;;3.80;77.40;;;;;;5053739;28;20204;-72
2022/12/10 09:41:04;;;;;;;32.90;19.35;;;3.80;77.40;;;;;;5058967;28;20266;-70
2022/12/10 09:43:46;;;;;;;34.45;19.45;;;3.80;77.40;;;;;;5061664;28;20204;-71
2022/12/10 09:46:24;;;;;;;33.67;17.02;;;3.80;77.50;;;;;;5056731;28;20231;-72
2022/12/10 09:49:06;;;;;;;35.20;20.00;;;3.90;77.60;;;;;;5053079;28;20584;-72
2022/12/10 09:51:38;;;;;;;36.05;19.70;;;3.90;77.70;;;;;;5054402;28;20947;-71
2022/12/10 09:54:19;;;;;;;34.78;19.20;;;4.00;77.80;;;;;;5056628;28;20205;-72
2022/12/10 09:56:51;;;;;;;34.53;20.05;;;4.10;77.90;;;;;;5070362;28;20251;-73
2022/12/10 09:59:22;;;;;;;36.47;19.08;;;4.10;77.90;;;;;;5055245;28;20196;-71
2022/12/10 10:01:59;;;;;;;40.65;19.80;;;4.20;77.90;;;;;;5052228;28;20258;-72
2022/12/10 10:04:27;;;;;;;29.90;18.38;;;4.20;78.00;;;;;;5055635;28;20307;-72
2022/12/10 10:06:56;;;;;;;35.03;18.25;;;4.30;77.90;;;;;;5060627;28;20236;-71
2022/12/10 10:09:24;;;;;;;29.95;17.58;;;4.30;77.80;;;;;;5056224;28;20286;-72
2022/12/10 10:11:54;;;;;;;32.25;18.23;;;4.30;77.70;;;;;;5055900;28;20212;-72
2022/12/10 10:14:27;;;;;;;33.58;19.63;;;4.30;77.90;;;;;;5056836;28;20196;-71
2022/12/10 10:17:01;;;;;;;31.70;17.95;;;4.30;77.90;;;;;;5056505;28;20251;-72
2022/12/10 10:19:32;;;;;;;29.13;17.65;;;4.30;77.90;;;;;;5054638;28;20191;-73
2022/12/10 10:22:01;;;;;;;33.55;18.60;;;4.30;78.00;;;;;;5052475;28;20333;-71
2022/12/10 10:24:35;;;;;;;31.70;19.17;;;4.30;77.90;;;;;;5057123;28;20196;-71
2022/12/10 10:27:13;;;;;;;31.33;16.45;;;4.30;78.00;;;;;;5053359;28;20258;-72
2022/12/10 10:29:42;;;;;;;32.08;18.45;;;4.30;77.90;;;;;;5055654;28;20216;-72
2022/12/10 10:32:21;;;;;;;31.95;16.90;;;4.30;77.90;;;;;;5053099;28;20271;-72
2022/12/10 10:34:54;;;;;;;28.02;16.33;;;4.30;77.80;;;;;;5051698;28;21244;-73
2022/12/10 10:37:26;;;;;;;33.47;18.92;;;4.30;77.70;;;;;;5053262;28;20739;-71
2022/12/10 10:39:55;;;;;;;33.63;19.00;;;4.30;77.80;;;;;;5058175;28;20200;-72
2022/12/10 10:42:36;;;;;;;31.27;17.67;;;4.30;77.70;;;;;;5055127;28;20193;-73
2022/12/10 10:45:05;;;;;;;32.15;17.33;;;4.20;77.80;;;;;;5050620;28;20200;-72
2022/12/10 10:47:36;;;;;;;34.38;19.77;;;4.20;77.90;;;;;;5054724;28;20274;-70
2022/12/10 10:50:06;;;;;;;30.73;17.45;;;4.20;77.90;;;;;;5053612;28;20204;-73
2022/12/10 10:52:38;;;;;;;34.90;18.33;;;4.30;77.90;;;;;;5056022;28;20208;-75
2022/12/10 10:55:06;;;;;;;36.53;20.23;;;4.30;78.10;;;;;;5051156;28;20258;-74
2022/12/10 10:57:38;;;;;;;35.67;20.98;;;4.40;78.10;;;;;;5054214;28;20235;-75
2022/12/10 11:00:18;;;;;;;34.95;20.42;;;4.40;78.10;;;;;;5050164;28;20201;-74
2022/12/10 11:02:47;;;;;;;37.13;21.00;;;4.40;78.00;;;;;;5069968;28;20207;-76
2022/12/10 11:05:21;;;;;;;32.35;18.35;;;4.40;77.90;;;;;;5054143;28;20203;-71
2022/12/10 11:07:57;;;;;;;36.40;19.73;;;4.40;77.90;;;;;;5053569;28;20210;-72
2022/12/10 11:10:26;;;;;;;32.45;19.48;;;4.40;78.00;;;;;;5053084;28;20214;-74
2022/12/10 11:13:00;;;;;;;32.70;18.67;;;4.40;78.00;;;;;;5057151;28;20200;-73
2022/12/10 11:15:37;;;;;;;31.58;16.67;;;4.50;78.00;;;;;;5053016;28;20205;-72
2022/12/10 11:18:25;;;;;;;33.25;17.05;;;4.50;78.00;;;;;;5054574;28;20192;-72
2022/12/10 11:21:02;;;;;;;35.95;18.45;;;4.50;78.00;;;;;;5053842;28;20265;-77
2022/12/10 11:23:32;;;;;;;32.40;18.58;;;4.50;78.10;;;;;;5055211;28;20421;-71
2022/12/10 11:26:18;;;;;;;34.00;18.60;;;4.50;78.10;;;;;;5054225;28;20823;-71
2022/12/10 11:28:58;;;;;;;30.83;18.45;;;4.60;78.10;;;;;;5053138;28;20201;-72
2022/12/10 11:31:40;;;;;;;34.17;18.85;;;4.60;78.10;;;;;;5056069;28;20231;-72
2022/12/10 11:34:19;;;;;;;34.67;19.73;;;4.60;78.10;;;;;;5058910;28;20568;-71
2022/12/10 11:36:57;;;;;;;34.42;19.45;;;4.70;78.10;;;;;;5057320;28;20235;-71
2022/12/10 11:39:37;;;;;;;29.00;18.20;;;4.70;78.10;;;;;;5057522;28;20774;-73
2022/12/10 11:42:11;;;;;;;37.63;19.50;;;4.70;78.10;;;;;;5051571;28;20204;-71
2022/12/10 11:44:48;;;;;;;34.70;20.05;;;4.70;78.20;;;;;;5054411;28;20269;-74
2022/12/10 11:47:36;;;;;;;34.13;18.30;;;4.80;78.10;;;;;;5056908;28;20268;-74
2022/12/10 11:50:16;;;;;;;30.98;18.38;;;4.80;78.10;;;;;;5060740;28;20208;-73
2022/12/10 11:52:57;;;;;;;33.38;18.02;;;4.80;78.00;;;;;;5072044;28;20211;-71
2022/12/10 11:55:36;;;;;;;34.15;17.60;;;4.80;77.90;;;;;;5057626;28;20330;-71
2022/12/10 11:58:27;;;;;;;30.83;18.50;;;4.70;78.00;;;;;;5059649;28;20249;-71
2022/12/10 12:01:05;;;;;;;29.05;17.40;;;4.70;78.00;;;;;;5060359;28;20204;-71
2022/12/10 12:03:56;;;;;;;30.77;17.88;;;4.70;78.00;;;;;;5061622;28;20257;-71
2022/12/10 12:06:51;;;;;;;31.35;18.40;;;4.80;78.00;;;;;;5057228;28;20231;-72
2022/12/10 12:09:26;;;;;;;28.23;16.08;;;4.80;78.00;;;;;;5060249;28;20232;-71
2022/12/10 12:12:08;;;;;;;31.05;17.90;;;4.80;78.00;;;;;;5059607;28;20257;-71
2022/12/10 12:14:41;;;;;;;28.13;17.00;;;4.80;77.90;;;;;;5060070;28;20195;-72
2022/12/10 12:17:17;;;;;;;29.63;16.08;;;4.80;77.80;;;;;;5059192;28;20321;-72
2022/12/10 12:19:48;;;;;;;32.10;17.90;;;4.70;77.80;;;;;;5056907;28;20196;-72
2022/12/10 12:22:22;;;;;;;32.25;17.33;;;4.70;77.70;;;;;;5056029;28;20434;-72
2022/12/10 12:24:51;;;;;;;29.95;17.38;;;4.70;77.70;;;;;;5074798;28;20236;-71
2022/12/10 12:27:26;;;;;;;28.17;17.20;;;4.60;77.70;;;;;;5059540;28;20819;-72
2022/12/10 12:30:04;;;;;;;30.70;17.15;;;4.60;77.60;;;;;;5058420;28;20208;-71
2022/12/10 12:32:44;;;;;;;28.48;15.98;;;4.50;77.70;;;;;;5056319;28;20208;-72
2022/12/10 12:35:17;;;;;;;31.75;17.60;;;4.50;77.80;;;;;;5056374;28;20197;-71
2022/12/10 12:37:51;;;;;;;32.90;17.70;;;4.50;77.80;;;;;;5074033;28;20232;-73
2022/12/10 12:40:28;;;;;;;31.60;17.23;;;4.50;77.80;;;;;;5060310;28;20626;-73
2022/12/10 12:43:00;;;;;;;28.88;17.10;;;4.50;77.90;;;;;;5055717;28;20241;-72
2022/12/10 12:45:34;;;;;;;32.10;17.40;;;4.50;77.90;;;;;;5056458;28;20229;-73
2022/12/10 12:48:14;;;;;;;28.20;15.82;;;4.50;77.80;;;;;;5058823;28;20227;-72
2022/12/10 12:50:46;;;;;;;29.98;17.55;;;4.50;77.80;;;;;;5055529;28;20224;-73
2022/12/10 12:53:16;;;;;;;29.13;15.57;;;4.50;77.70;;;;;;5058904;28;20249;-73
2022/12/10 12:55:51;;;;;;;29.75;16.95;;;4.40;77.60;;;;;;5058847;28;20810;-72
2022/12/10 12:58:27;;;;;;;32.42;17.30;;;4.40;77.60;;;;;;5057352;28;20255;-72
2022/12/10 13:00:59;;;;;;;36.70;18.90;;;4.30;77.60;;;;;;5061956;28;20204;-73
2022/12/10 13:03:37;;;;;;;32.28;17.48;;;4.30;77.60;;;;;;5057731;28;20674;-71
2022/12/10 13:06:18;;;;;;;38.58;18.50;;;4.20;77.70;;;;;;5057605;28;20281;-72
2022/12/10 13:08:48;;;;;;;32.10;18.05;;;4.20;77.80;;;;;;5055528;28;20203;-72